CheckWX is a tool to help pilots better visualize weather data.  It is not intended as a substitute for an official pre-flight weather briefing.

03:49:03 UTC

KHIB TAF
Range Regional Airport
Hibbing, Minnesota, USA
KHIB 040552Z 0406/0506 00000KT P6SM SKC FM040900 00000KT 2SM BR SCT008 FM041200 VRB03KT P6SM FEW070 FM050100 VRB03KT P6SM BKN100

Jul-4@
06:00 UTC

Jul-4 @ 06:00 UTC

Jul-4@
09:00 UTC

Jul-4 @ 09:00 UTC

TAF KHIB 040552Z 0406/0506 00000KT P6SM SKC

Expired

Cloud Levels
  • Clear skies

Jul-4@
09:00 UTC

Jul-4 @ 09:00 UTC

Jul-4@
12:00 UTC

Jul-4 @ 12:00 UTC

FM040900 00000KT 2SM BR SCT008

Expired

Conditions
Mist
Cloud Levels
  • Scattered at 800' AGL

Jul-4@
12:00 UTC

Jul-4 @ 12:00 UTC

Jul-5@
01:00 UTC

Jul-5 @ 01:00 UTC

FM041200 VRB03KT P6SM FEW070

Expired

Wind
  • Variable at 3 KTS
Cloud Levels
  • Few at 7,000' AGL

Jul-5@
01:00 UTC

Jul-5 @ 01:00 UTC

Jul-5@
06:00 UTC

Jul-5 @ 06:00 UTC

FM050100 VRB03KT P6SM BKN100

From

From Standard forecast or significant change

Wind
  • Variable at 3 KTS
Cloud Levels
  • Broken at 10,000' AGL